createdAt,value
2022-08-26T00:03:32.217Z,95596.56
2022-08-26T00:08:54.016Z,95591.28
2022-08-26T00:14:16.232Z,95593.72
2022-08-26T00:19:20.350Z,95589.59
2022-08-26T00:24:22.678Z,95594.94
2022-08-26T00:29:25.890Z,95596.19
2022-08-26T00:34:28.429Z,95597.56
2022-08-26T00:39:31.392Z,95600.47
2022-08-26T00:44:33.756Z,95601.31
2022-08-26T00:49:44.958Z,95606.91
2022-08-26T00:54:57.305Z,95601.50
2022-08-26T01:00:02.196Z,95606.06
2022-08-26T01:05:05.858Z,95603.41
2022-08-26T01:10:13.737Z,95608.81
2022-08-26T01:15:43.782Z,95609.84
2022-08-26T01:21:16.925Z,95610.66
2022-08-26T01:26:24.626Z,95606.72
2022-08-26T01:31:32.241Z,95606.75
2022-08-26T01:36:34.857Z,95600.53
2022-08-26T01:41:39.461Z,95605.09
2022-08-26T01:46:46.159Z,95594.59
2022-08-26T01:51:51.717Z,95610.47
2022-08-26T01:56:55.378Z,95599.72
2022-08-26T02:01:58.925Z,95605.91
2022-08-26T02:07:09.199Z,95605.06
2022-08-26T02:12:30.967Z,95610.84
2022-08-26T02:17:52.636Z,95610.00
2022-08-26T02:23:13.570Z,95619.69
2022-08-26T02:33:22.084Z,95617.19
2022-08-26T02:38:24.786Z,95617.00
2022-08-26T02:48:35.237Z,95613.53
2022-08-26T02:53:38.256Z,95621.09
2022-08-26T02:59:00.799Z,95615.56
2022-08-26T03:04:21.817Z,95608.00
2022-08-26T03:09:47.056Z,95611.94
2022-08-26T03:14:50.306Z,95598.66
2022-08-26T03:20:15.564Z,95604.50
2022-08-26T03:25:21.256Z,95603.34
2022-08-26T03:30:23.878Z,95603.53
2022-08-26T03:35:26.556Z,95599.84
2022-08-26T03:40:29.020Z,95597.56
2022-08-26T03:45:31.718Z,95602.34
2022-08-26T03:50:35.991Z,95595.69
2022-08-26T03:55:38.297Z,95603.16
2022-08-26T04:00:42.258Z,95601.44
2022-08-26T04:05:45.456Z,95601.22
2022-08-26T04:10:48.757Z,95605.13
2022-08-26T04:15:54.001Z,95602.63
2022-08-26T04:21:15.377Z,95593.81
2022-08-26T04:26:20.735Z,95595.88
2022-08-26T04:31:23.226Z,95606.56
2022-08-26T04:36:26.217Z,95617.66
2022-08-26T04:41:31.654Z,95612.13
2022-08-26T04:46:34.833Z,95609.03
2022-08-26T04:51:39.636Z,95626.63
2022-08-26T04:56:47.916Z,95616.94
2022-08-26T05:01:53.559Z,95612.66
2022-08-26T05:07:02.883Z,95615.16
2022-08-26T05:12:27.298Z,95616.22
2022-08-26T05:17:33.435Z,95620.19
2022-08-26T05:22:37.896Z,95622.66
2022-08-26T05:27:40.646Z,95622.09
2022-08-26T05:32:43.324Z,95613.16
2022-08-26T05:38:12.490Z,95607.84
2022-08-26T05:43:16.917Z,95622.97
2022-08-26T05:48:24.526Z,95615.16
2022-08-26T05:53:28.064Z,95633.50
2022-08-26T05:58:30.856Z,95627.91
2022-08-26T06:03:36.737Z,95637.44
2022-08-26T06:08:39.958Z,95635.22
2022-08-26T06:13:43.957Z,95640.19
2022-08-26T06:19:10.794Z,95642.41
2022-08-26T06:24:14.040Z,95644.84
2022-08-26T06:29:36.443Z,95640.03
2022-08-26T06:34:39.900Z,95641.19
2022-08-26T06:39:42.136Z,95646.09
2022-08-26T06:44:44.709Z,95651.16
2022-08-26T06:49:47.165Z,95645.66
2022-08-26T06:55:10.256Z,95645.47
2022-08-26T07:00:13.416Z,95654.31
2022-08-26T07:05:35.657Z,95658.75
2022-08-26T07:10:56.949Z,95656.47
2022-08-26T07:16:03.057Z,95657.41
2022-08-26T07:21:09.928Z,95661.78
2022-08-26T07:26:16.077Z,95664.34
2022-08-26T07:31:21.339Z,95656.97
2022-08-26T07:36:25.096Z,95658.22
2022-08-26T07:41:27.456Z,95656.81
2022-08-26T07:46:30.243Z,95660.28
2022-08-26T07:51:33.368Z,95663.78
2022-08-26T07:56:56.055Z,95669.63
2022-08-26T08:01:58.413Z,95661.28
2022-08-26T08:07:01.156Z,95657.22
2022-08-26T08:12:05.625Z,95658.31
2022-08-26T08:17:08.651Z,95656.16
2022-08-26T08:22:17.915Z,95658.28
2022-08-26T08:27:23.950Z,95658.28
2022-08-26T08:32:26.616Z,95652.31
2022-08-26T08:37:28.917Z,95659.72
2022-08-26T08:43:12.366Z,95657.13
2022-08-26T08:48:37.197Z,95659.63
2022-08-26T08:53:44.436Z,95655.91
2022-08-26T08:58:51.663Z,95660.94
2022-08-26T09:03:59.998Z,95652.13
2022-08-26T09:09:05.084Z,95649.94
2022-08-26T09:14:27.657Z,95644.47
2022-08-26T09:19:47.007Z,95646.84
2022-08-26T09:24:50.199Z,95646.06
2022-08-26T09:30:18.586Z,95642.50
2022-08-26T09:35:34.725Z,95647.91
2022-08-26T09:41:01.797Z,95651.97
2022-08-26T09:46:32.053Z,95645.66
2022-08-26T09:51:34.378Z,95641.78
2022-08-26T09:56:39.365Z,95632.53
2022-08-26T10:01:44.702Z,95632.34
2022-08-26T10:07:07.638Z,95632.13
2022-08-26T10:12:28.698Z,95619.00
2022-08-26T10:18:01.491Z,95602.31
2022-08-26T10:23:12.377Z,95604.47
2022-08-26T10:28:44.417Z,95598.28
2022-08-26T10:33:47.204Z,95604.06
2022-08-26T10:39:14.979Z,95594.78
2022-08-26T10:44:18.626Z,95588.13
2022-08-26T10:49:20.996Z,95582.00
2022-08-26T10:54:50.265Z,95583.97
2022-08-26T11:00:28.597Z,95573.44
2022-08-26T11:05:30.937Z,95566.44
2022-08-26T11:10:51.863Z,95572.59
2022-08-26T11:15:54.400Z,95566.88
2022-08-26T11:20:56.677Z,95567.19
2022-08-26T11:25:58.757Z,95550.81
2022-08-26T11:31:04.456Z,95549.06
2022-08-26T11:36:33.697Z,95548.03
2022-08-26T11:41:36.417Z,95544.97
2022-08-26T11:46:39.797Z,95543.00
2022-08-26T11:51:45.226Z,95531.25
2022-08-26T11:57:13.504Z,95525.34
2022-08-26T12:02:18.163Z,95524.84
2022-08-26T12:07:39.257Z,95514.66
2022-08-26T12:12:55.228Z,95505.25
2022-08-26T12:17:58.816Z,95509.03
2022-08-26T12:23:02.045Z,95504.75
2022-08-26T12:28:06.030Z,95496.78
2022-08-26T12:33:22.144Z,95499.69
2022-08-26T12:38:27.269Z,95494.50
2022-08-26T12:43:48.064Z,95492.16
2022-08-26T12:48:50.304Z,95488.47
2022-08-26T12:53:54.005Z,95485.94
2022-08-26T12:59:26.863Z,95485.19
2022-08-26T13:04:34.035Z,95480.66
2022-08-26T13:09:36.946Z,95467.16
2022-08-26T13:14:40.264Z,95469.19
2022-08-26T13:19:44.164Z,95470.81
2022-08-26T13:24:48.363Z,95464.53
2022-08-26T13:29:52.665Z,95473.63
2022-08-26T13:34:57.905Z,95469.09
2022-08-26T13:40:01.719Z,95462.84
2022-08-26T13:45:05.994Z,95464.38
2022-08-26T13:50:27.557Z,95451.31
2022-08-26T13:55:49.207Z,95441.88
2022-08-26T14:00:53.151Z,95436.22
2022-08-26T14:05:57.332Z,95450.06
2022-08-26T14:11:01.089Z,95450.38
2022-08-26T14:16:08.801Z,95448.25
2022-08-26T14:21:14.005Z,95444.19
2022-08-26T14:26:28.339Z,95424.91
2022-08-26T14:31:34.200Z,95420.47
2022-08-26T14:36:38.066Z,95446.09
2022-08-26T14:41:53.725Z,95469.44
2022-08-26T14:46:59.720Z,95461.41
2022-08-26T14:52:02.405Z,95467.63
2022-08-26T14:57:07.644Z,95477.16
2022-08-26T15:02:30.882Z,95490.63
2022-08-26T15:07:36.345Z,95493.59
2022-08-26T15:12:57.444Z,95479.81
2022-08-26T15:17:59.813Z,95477.16
2022-08-26T15:23:06.212Z,95479.72
2022-08-26T15:28:08.764Z,95513.75
2022-08-26T15:33:15.289Z,95517.72
2022-08-26T15:38:25.853Z,95524.16
2022-08-26T15:43:29.281Z,95518.34
2022-08-26T15:48:52.928Z,95539.13
2022-08-26T15:53:56.330Z,95568.63
2022-08-26T15:58:59.207Z,95588.25
2022-08-26T16:04:02.304Z,95581.03
2022-08-26T16:09:25.265Z,95572.63
2022-08-26T16:14:27.767Z,95577.22
2022-08-26T16:19:30.053Z,95587.97
2022-08-26T16:24:51.065Z,95601.50
2022-08-26T16:29:53.213Z,95598.75
2022-08-26T16:34:56.620Z,95601.78
2022-08-26T16:40:00.622Z,95604.59
2022-08-26T16:45:03.984Z,95599.16
2022-08-26T16:50:07.345Z,95611.03
2022-08-26T16:55:13.475Z,95609.63
2022-08-26T17:00:24.223Z,95610.69
2022-08-26T17:05:27.505Z,95628.22
2022-08-26T17:10:30.541Z,95633.41
2022-08-26T17:15:33.577Z,95640.28
2022-08-26T17:20:36.245Z,95641.75
2022-08-26T17:25:40.405Z,95638.09
2022-08-26T17:30:42.888Z,95636.03
2022-08-26T17:35:45.216Z,95643.25
2022-08-26T17:40:47.798Z,95654.22
2022-08-26T17:50:53.336Z,95671.88
2022-08-26T17:55:56.576Z,95670.56
2022-08-26T18:00:59.370Z,95671.47
2022-08-26T18:06:03.000Z,95676.88
2022-08-26T18:11:14.250Z,95686.28
2022-08-26T18:16:18.613Z,95697.34
2022-08-26T18:21:27.217Z,95689.31
2022-08-26T18:26:35.104Z,95689.19
2022-08-26T18:31:37.888Z,95688.78
2022-08-26T18:36:58.951Z,95691.66
2022-08-26T18:42:01.665Z,95686.56
2022-08-26T18:47:04.046Z,95693.03
2022-08-26T18:52:06.497Z,95701.31
2022-08-26T18:57:08.998Z,95699.66
2022-08-26T19:02:30.652Z,95709.13
2022-08-26T19:07:51.489Z,95703.56
2022-08-26T19:12:55.383Z,95693.84
2022-08-26T19:18:01.258Z,95684.16
2022-08-26T19:23:31.572Z,95683.13
2022-08-26T19:28:38.651Z,95679.84
2022-08-26T19:33:43.938Z,95683.91
2022-08-26T19:38:46.738Z,95674.44
2022-08-26T19:43:50.307Z,95680.19
2022-08-26T19:48:55.758Z,95682.66
2022-08-26T19:54:01.259Z,95684.78
2022-08-26T19:59:04.211Z,95688.91
2022-08-26T20:04:07.013Z,95696.31
2022-08-26T20:09:09.600Z,95709.28
2022-08-26T20:14:13.499Z,95707.44
2022-08-26T20:19:16.171Z,95698.63
2022-08-26T20:24:20.218Z,95704.78
2022-08-26T20:29:23.446Z,95700.84
2022-08-26T20:34:26.025Z,95693.41
2022-08-26T20:39:28.630Z,95689.06
2022-08-26T20:44:31.904Z,95697.72
2022-08-26T20:49:36.368Z,95702.91
2022-08-26T20:54:39.444Z,95704.13
2022-08-26T21:00:00.628Z,95700.69
2022-08-26T21:05:03.272Z,95699.22
2022-08-26T21:10:06.846Z,95708.94
2022-08-26T21:15:28.066Z,95720.47
2022-08-26T21:20:38.545Z,95718.22
2022-08-26T21:25:41.105Z,95721.94
2022-08-26T21:30:44.256Z,95723.16
2022-08-26T21:35:54.205Z,95718.63
2022-08-26T21:41:01.545Z,95717.78
2022-08-26T21:46:25.003Z,95725.84
2022-08-26T21:51:30.631Z,95737.63
2022-08-26T21:56:36.783Z,95744.63
2022-08-26T22:01:39.271Z,95747.09
2022-08-26T22:07:00.006Z,95739.56
2022-08-26T22:12:02.653Z,95742.84
2022-08-26T22:17:05.412Z,95739.19
2022-08-26T22:22:07.851Z,95745.53
2022-08-26T22:27:10.632Z,95745.59
2022-08-26T22:32:14.449Z,95739.25
2022-08-26T22:37:16.913Z,95733.09
2022-08-26T22:42:19.364Z,95731.31
2022-08-26T22:47:41.912Z,95732.59
2022-08-26T22:52:44.265Z,95728.91
2022-08-26T22:57:46.620Z,95733.91
2022-08-26T23:02:49.256Z,95733.88
2022-08-26T23:07:51.894Z,95724.00
2022-08-26T23:13:14.063Z,95728.06
2022-08-26T23:18:17.066Z,95720.88
2022-08-26T23:23:19.494Z,95724.00
2022-08-26T23:28:22.306Z,95717.78
2022-08-26T23:33:25.191Z,95719.00
2022-08-26T23:38:27.555Z,95717.13
2022-08-26T23:43:31.976Z,95706.81
2022-08-26T23:48:34.585Z,95707.63
2022-08-26T23:53:36.873Z,95697.13
2022-08-26T23:58:39.296Z,95698.50
